Bowery Haven, Utah
Current Conditions -  °F | °C
As of 11:55 AM on Friday 24 Oct 2014 (Local Time) from KHVE Reporting Station
Clear Clear  
Wind Chill: 63°   Ceiling: Unl
Heat Index: 63°   Visibility: 10mi
Dew Point: 32°   Wind: 0mph
Humidity: 32%   Direction: NA
Pressure: 30.29"   Gusts: NA
Location:  38.7083°N, 111.729°W
Report Text: KHVE 241755Z AUTO 00000KT 10SM CLR 17/00 A3029 RMK AO2
Loading
Personal Weather Stations






























Interactive Weather Map
Tropical Storm Tracking
New forecast layout! Learn more

10-Day Weather Forecast

Advertisements
Track Severe Weather on mobile